sensor_id;sensor_type;location;lat;lon;timestamp;pressure;altitude;pressure_sealevel;temperature;humidity
15694;BME280;7947;48.834;9.132;2022-12-29T00:02:08;97757.59;;;10.09;68.11
15694;BME280;7947;48.834;9.132;2022-12-29T00:05:11;97753.94;;;10.00;68.81
15694;BME280;7947;48.834;9.132;2022-12-29T00:08:14;97754.00;;;9.90;68.94
15694;BME280;7947;48.834;9.132;2022-12-29T00:11:18;97754.31;;;9.83;69.32
15694;BME280;7947;48.834;9.132;2022-12-29T00:14:22;97737.47;;;9.78;69.05
15694;BME280;7947;48.834;9.132;2022-12-29T00:17:44;97730.31;;;9.73;70.37
15694;BME280;7947;48.834;9.132;2022-12-29T00:20:47;97731.66;;;9.71;69.90
15694;BME280;7947;48.834;9.132;2022-12-29T00:24:10;97728.31;;;9.84;67.91
15694;BME280;7947;48.834;9.132;2022-12-29T00:27:32;97723.41;;;9.96;66.88
15694;BME280;7947;48.834;9.132;2022-12-29T00:30:58;97721.16;;;10.13;66.16
15694;BME280;7947;48.834;9.132;2022-12-29T00:34:21;97721.91;;;10.19;66.56
15694;BME280;7947;48.834;9.132;2022-12-29T00:37:57;97716.47;;;10.29;66.10
15694;BME280;7947;48.834;9.132;2022-12-29T00:41:19;97708.88;;;10.36;66.01
15694;BME280;7947;48.834;9.132;2022-12-29T00:44:39;97704.78;;;10.43;65.18
15694;BME280;7947;48.834;9.132;2022-12-29T00:47:42;97707.97;;;10.45;65.62
15694;BME280;7947;48.834;9.132;2022-12-29T00:50:47;97707.97;;;10.45;65.46
15694;BME280;7947;48.834;9.132;2022-12-29T00:53:49;97707.97;;;10.45;65.59
15694;BME280;7947;48.834;9.132;2022-12-29T00:56:52;97705.03;;;10.47;65.29
15694;BME280;7947;48.834;9.132;2022-12-29T00:59:55;97711.66;;;10.54;65.03
15694;BME280;7947;48.834;9.132;2022-12-29T01:02:58;97707.34;;;10.53;65.23
15694;BME280;7947;48.834;9.132;2022-12-29T01:06:04;97708.75;;;10.51;65.68
15694;BME280;7947;48.834;9.132;2022-12-29T01:09:08;97709.59;;;10.46;65.53
15694;BME280;7947;48.834;9.132;2022-12-29T01:12:29;97717.56;;;10.51;64.64
15694;BME280;7947;48.834;9.132;2022-12-29T01:15:49;97721.06;;;10.52;65.40
15694;BME280;7947;48.834;9.132;2022-12-29T01:18:52;97728.03;;;10.53;65.49
15694;BME280;7947;48.834;9.132;2022-12-29T01:21:56;97729.91;;;10.52;66.34
15694;BME280;7947;48.834;9.132;2022-12-29T01:24:59;97726.75;;;10.45;66.93
15694;BME280;7947;48.834;9.132;2022-12-29T01:28:02;97728.66;;;10.45;67.63
15694;BME280;7947;48.834;9.132;2022-12-29T01:31:05;97728.91;;;10.43;67.68
15694;BME280;7947;48.834;9.132;2022-12-29T01:34:08;97728.97;;;10.38;68.72
15694;BME280;7947;48.834;9.132;2022-12-29T01:37:13;97724.44;;;10.34;69.29
15694;BME280;7947;48.834;9.132;2022-12-29T01:40:16;97721.00;;;10.33;69.37
15694;BME280;7947;48.834;9.132;2022-12-29T01:43:19;97721.50;;;10.35;68.22
15694;BME280;7947;48.834;9.132;2022-12-29T01:46:25;97716.38;;;10.39;67.91
15694;BME280;7947;48.834;9.132;2022-12-29T01:49:29;97724.06;;;10.45;67.25
15694;BME280;7947;48.834;9.132;2022-12-29T01:52:35;97716.50;;;10.52;67.13
15694;BME280;7947;48.834;9.132;2022-12-29T01:55:42;97718.50;;;10.65;66.10
15694;BME280;7947;48.834;9.132;2022-12-29T01:58:48;97707.78;;;10.65;65.74
15694;BME280;7947;48.834;9.132;2022-12-29T02:01:53;97713.59;;;10.72;66.03
15694;BME280;7947;48.834;9.132;2022-12-29T02:04:58;97699.91;;;10.74;65.27
15694;BME280;7947;48.834;9.132;2022-12-29T02:08:06;97700.13;;;10.77;65.37
15694;BME280;7947;48.834;9.132;2022-12-29T02:11:10;97692.31;;;10.81;65.55
15694;BME280;7947;48.834;9.132;2022-12-29T02:14:14;97699.78;;;10.84;64.82
15694;BME280;7947;48.834;9.132;2022-12-29T02:17:28;97685.84;;;10.82;64.84
15694;BME280;7947;48.834;9.132;2022-12-29T02:21:08;97687.13;;;10.89;64.44
15694;BME280;7947;48.834;9.132;2022-12-29T02:24:51;97687.16;;;10.84;64.89
15694;BME280;7947;48.834;9.132;2022-12-29T02:31:57;97691.00;;;10.78;66.43
15694;BME280;7947;48.834;9.132;2022-12-29T02:35:07;97692.09;;;10.77;66.69
15694;BME280;7947;48.834;9.132;2022-12-29T02:38:18;97689.91;;;10.79;65.80
15694;BME280;7947;48.834;9.132;2022-12-29T02:41:29;97688.03;;;10.80;65.07
15694;BME280;7947;48.834;9.132;2022-12-29T02:44:38;97689.56;;;10.86;64.91
15694;BME280;7947;48.834;9.132;2022-12-29T02:47:49;97680.09;;;10.94;65.02
15694;BME280;7947;48.834;9.132;2022-12-29T02:50:59;97678.66;;;11.01;64.16
15694;BME280;7947;48.834;9.132;2022-12-29T02:54:04;97689.59;;;11.05;63.69
15694;BME280;7947;48.834;9.132;2022-12-29T02:57:32;97684.75;;;11.07;63.63
15694;BME280;7947;48.834;9.132;2022-12-29T03:00:39;97683.09;;;11.11;63.67
15694;BME280;7947;48.834;9.132;2022-12-29T03:03:58;97686.78;;;11.15;63.33
15694;BME280;7947;48.834;9.132;2022-12-29T03:07:11;97674.81;;;11.26;62.65
15694;BME280;7947;48.834;9.132;2022-12-29T03:10:28;97688.63;;;11.38;62.51
15694;BME280;7947;48.834;9.132;2022-12-29T03:13:40;97685.94;;;11.38;62.18
15694;BME280;7947;48.834;9.132;2022-12-29T03:17:07;97677.06;;;11.37;62.46
15694;BME280;7947;48.834;9.132;2022-12-29T03:20:18;97675.03;;;11.48;62.76
15694;BME280;7947;48.834;9.132;2022-12-29T03:23:23;97662.69;;;11.47;62.23
15694;BME280;7947;48.834;9.132;2022-12-29T03:26:27;97667.78;;;11.48;61.90
15694;BME280;7947;48.834;9.132;2022-12-29T03:29:33;97652.16;;;11.50;61.54
15694;BME280;7947;48.834;9.132;2022-12-29T03:32:41;97649.47;;;11.50;61.91
15694;BME280;7947;48.834;9.132;2022-12-29T03:35:48;97657.47;;;11.55;61.21
15694;BME280;7947;48.834;9.132;2022-12-29T03:38:57;97644.78;;;11.61;61.41
15694;BME280;7947;48.834;9.132;2022-12-29T03:42:05;97640.47;;;11.60;61.13
15694;BME280;7947;48.834;9.132;2022-12-29T03:45:10;97647.44;;;11.61;61.27
15694;BME280;7947;48.834;9.132;2022-12-29T03:48:13;97629.66;;;11.65;61.50
15694;BME280;7947;48.834;9.132;2022-12-29T03:51:17;97629.72;;;11.60;61.73
15694;BME280;7947;48.834;9.132;2022-12-29T03:54:20;97626.97;;;11.65;61.62
15694;BME280;7947;48.834;9.132;2022-12-29T03:57:23;97641.34;;;11.74;61.12
15694;BME280;7947;48.834;9.132;2022-12-29T04:00:26;97644.16;;;11.64;61.78
15694;BME280;7947;48.834;9.132;2022-12-29T04:03:29;97640.16;;;11.61;61.72
15694;BME280;7947;48.834;9.132;2022-12-29T04:06:34;97639.03;;;11.49;62.09
15694;BME280;7947;48.834;9.132;2022-12-29T04:09:37;97632.16;;;11.43;62.40
15694;BME280;7947;48.834;9.132;2022-12-29T04:12:40;97638.63;;;11.42;62.59
15694;BME280;7947;48.834;9.132;2022-12-29T04:15:44;97648.41;;;11.33;63.38
15694;BME280;7947;48.834;9.132;2022-12-29T04:18:47;97656.53;;;11.28;63.65
15694;BME280;7947;48.834;9.132;2022-12-29T04:21:51;97666.41;;;11.32;64.17
15694;BME280;7947;48.834;9.132;2022-12-29T04:24:54;97670.38;;;11.35;63.88
15694;BME280;7947;48.834;9.132;2022-12-29T04:27:57;97672.34;;;11.29;64.10
15694;BME280;7947;48.834;9.132;2022-12-29T04:31:00;97668.94;;;11.24;64.10
15694;BME280;7947;48.834;9.132;2022-12-29T04:34:03;97652.34;;;11.22;64.55
15694;BME280;7947;48.834;9.132;2022-12-29T04:37:07;97649.31;;;11.28;65.02
15694;BME280;7947;48.834;9.132;2022-12-29T04:40:11;97649.72;;;11.35;64.24
15694;BME280;7947;48.834;9.132;2022-12-29T04:43:14;97654.38;;;11.30;64.68
15694;BME280;7947;48.834;9.132;2022-12-29T04:46:18;97658.28;;;11.37;64.65
15694;BME280;7947;48.834;9.132;2022-12-29T04:49:21;97637.81;;;11.41;64.29
15694;BME280;7947;48.834;9.132;2022-12-29T04:52:26;97657.13;;;11.43;64.57
15694;BME280;7947;48.834;9.132;2022-12-29T04:55:28;97652.81;;;11.42;64.96
15694;BME280;7947;48.834;9.132;2022-12-29T04:58:31;97648.34;;;11.38;65.45
15694;BME280;7947;48.834;9.132;2022-12-29T05:01:34;97651.25;;;11.41;65.47
15694;BME280;7947;48.834;9.132;2022-12-29T05:04:37;97647.75;;;11.41;65.51
15694;BME280;7947;48.834;9.132;2022-12-29T05:07:41;97639.41;;;11.42;66.00
15694;BME280;7947;48.834;9.132;2022-12-29T05:10:45;97631.56;;;11.46;65.91
15694;BME280;7947;48.834;9.132;2022-12-29T05:13:48;97645.44;;;11.53;65.75
15694;BME280;7947;48.834;9.132;2022-12-29T05:16:51;97624.66;;;11.58;66.00
15694;BME280;7947;48.834;9.132;2022-12-29T05:19:54;97626.75;;;11.61;65.47
15694;BME280;7947;48.834;9.132;2022-12-29T05:22:59;97614.63;;;11.64;65.88
15694;BME280;7947;48.834;9.132;2022-12-29T05:26:02;97612.75;;;11.64;65.93
15694;BME280;7947;48.834;9.132;2022-12-29T05:29:04;97627.41;;;11.72;65.81
15694;BME280;7947;48.834;9.132;2022-12-29T05:32:08;97632.69;;;11.77;65.51
15694;BME280;7947;48.834;9.132;2022-12-29T05:35:11;97647.94;;;11.82;64.87
15694;BME280;7947;48.834;9.132;2022-12-29T05:38:16;97638.72;;;11.88;64.73
15694;BME280;7947;48.834;9.132;2022-12-29T05:41:19;97641.31;;;11.93;64.91
15694;BME280;7947;48.834;9.132;2022-12-29T05:44:22;97639.72;;;11.92;64.42
15694;BME280;7947;48.834;9.132;2022-12-29T05:47:25;97640.63;;;12.01;64.11
15694;BME280;7947;48.834;9.132;2022-12-29T05:50:28;97646.19;;;12.04;64.28
15694;BME280;7947;48.834;9.132;2022-12-29T05:53:32;97646.72;;;12.06;64.06
15694;BME280;7947;48.834;9.132;2022-12-29T05:56:35;97644.53;;;12.08;64.01
15694;BME280;7947;48.834;9.132;2022-12-29T05:59:38;97636.88;;;12.02;64.41
15694;BME280;7947;48.834;9.132;2022-12-29T06:02:40;97621.44;;;12.07;64.25
15694;BME280;7947;48.834;9.132;2022-12-29T06:05:44;97615.47;;;12.10;63.91
15694;BME280;7947;48.834;9.132;2022-12-29T06:08:48;97602.53;;;12.12;64.00
15694;BME280;7947;48.834;9.132;2022-12-29T06:11:51;97597.25;;;12.07;64.04
15694;BME280;7947;48.834;9.132;2022-12-29T06:14:54;97608.00;;;12.07;63.62
15694;BME280;7947;48.834;9.132;2022-12-29T06:17:57;97612.88;;;12.05;63.79
15694;BME280;7947;48.834;9.132;2022-12-29T06:21:00;97617.56;;;12.00;63.96
15694;BME280;7947;48.834;9.132;2022-12-29T06:24:05;97627.13;;;12.06;63.83
15694;BME280;7947;48.834;9.132;2022-12-29T06:27:08;97625.00;;;12.03;63.79
15694;BME280;7947;48.834;9.132;2022-12-29T06:30:12;97626.63;;;12.04;63.52
15694;BME280;7947;48.834;9.132;2022-12-29T06:33:16;97619.25;;;12.09;63.81
15694;BME280;7947;48.834;9.132;2022-12-29T06:36:19;97621.13;;;12.09;63.60
15694;BME280;7947;48.834;9.132;2022-12-29T06:39:23;97627.38;;;12.04;63.73
15694;BME280;7947;48.834;9.132;2022-12-29T06:42:26;97632.38;;;11.97;64.26
15694;BME280;7947;48.834;9.132;2022-12-29T06:45:28;97624.69;;;12.04;63.62
15694;BME280;7947;48.834;9.132;2022-12-29T06:48:31;97616.38;;;12.06;63.35
15694;BME280;7947;48.834;9.132;2022-12-29T06:51:34;97625.00;;;12.03;63.70
15694;BME280;7947;48.834;9.132;2022-12-29T06:54:38;97615.44;;;11.97;63.35
15694;BME280;7947;48.834;9.132;2022-12-29T06:57:41;97620.09;;;11.91;63.84
15694;BME280;7947;48.834;9.132;2022-12-29T07:00:44;97617.81;;;11.98;63.50
15694;BME280;7947;48.834;9.132;2022-12-29T07:03:47;97622.72;;;11.96;63.40
15694;BME280;7947;48.834;9.132;2022-12-29T07:06:49;97628.56;;;11.98;62.97
15694;BME280;7947;48.834;9.132;2022-12-29T07:09:53;97622.50;;;11.93;63.49
15694;BME280;7947;48.834;9.132;2022-12-29T07:12:56;97625.78;;;11.90;63.53
15694;BME280;7947;48.834;9.132;2022-12-29T07:15:59;97624.41;;;11.92;63.32
15694;BME280;7947;48.834;9.132;2022-12-29T07:19:02;97620.22;;;11.86;63.63
15694;BME280;7947;48.834;9.132;2022-12-29T07:22:05;97634.72;;;11.85;62.96
15694;BME280;7947;48.834;9.132;2022-12-29T07:25:09;97624.06;;;11.80;63.53
15694;BME280;7947;48.834;9.132;2022-12-29T07:28:12;97629.44;;;11.80;63.21
15694;BME280;7947;48.834;9.132;2022-12-29T07:31:17;97632.94;;;11.81;62.89
15694;BME280;7947;48.834;9.132;2022-12-29T07:34:20;97632.69;;;11.77;63.11
15694;BME280;7947;48.834;9.132;2022-12-29T07:37:24;97625.25;;;11.74;63.48
15694;BME280;7947;48.834;9.132;2022-12-29T07:40:28;97623.94;;;11.71;63.07
15694;BME280;7947;48.834;9.132;2022-12-29T07:43:31;97635.84;;;11.65;62.92
15694;BME280;7947;48.834;9.132;2022-12-29T07:46:34;97633.72;;;11.62;63.30
15694;BME280;7947;48.834;9.132;2022-12-29T07:49:57;97631.59;;;11.59;62.80
15694;BME280;7947;48.834;9.132;2022-12-29T07:53:00;97633.22;;;11.60;62.87
15694;BME280;7947;48.834;9.132;2022-12-29T07:56:05;97631.41;;;11.56;63.03
15694;BME280;7947;48.834;9.132;2022-12-29T07:59:08;97637.56;;;11.56;63.48
15694;BME280;7947;48.834;9.132;2022-12-29T08:02:11;97642.44;;;11.54;63.49
15694;BME280;7947;48.834;9.132;2022-12-29T08:05:14;97646.75;;;11.55;63.57
15694;BME280;7947;48.834;9.132;2022-12-29T08:08:18;97655.00;;;11.59;63.10
15694;BME280;7947;48.834;9.132;2022-12-29T08:11:22;97659.38;;;11.55;63.67
15694;BME280;7947;48.834;9.132;2022-12-29T08:14:25;97659.88;;;11.57;63.70
15694;BME280;7947;48.834;9.132;2022-12-29T08:17:28;97668.50;;;11.54;64.05
15694;BME280;7947;48.834;9.132;2022-12-29T08:20:31;97672.78;;;11.55;63.70
15694;BME280;7947;48.834;9.132;2022-12-29T08:23:34;97671.69;;;11.56;63.50
15694;BME280;7947;48.834;9.132;2022-12-29T08:26:39;97665.44;;;11.60;63.26
15694;BME280;7947;48.834;9.132;2022-12-29T08:29:42;97654.38;;;11.67;62.61
15694;BME280;7947;48.834;9.132;2022-12-29T08:32:44;97650.06;;;11.66;62.88
15694;BME280;7947;48.834;9.132;2022-12-29T08:35:47;97659.16;;;11.70;62.72
15694;BME280;7947;48.834;9.132;2022-12-29T08:38:50;97645.34;;;11.76;62.42
15694;BME280;7947;48.834;9.132;2022-12-29T08:41:55;97642.16;;;11.74;62.94
15694;BME280;7947;48.834;9.132;2022-12-29T08:44:58;97642.22;;;11.69;63.41
15694;BME280;7947;48.834;9.132;2022-12-29T08:48:01;97646.22;;;11.72;62.89
15694;BME280;7947;48.834;9.132;2022-12-29T08:51:04;97648.81;;;11.77;63.14
15694;BME280;7947;48.834;9.132;2022-12-29T08:54:07;97651.44;;;11.82;63.26
15694;BME280;7947;48.834;9.132;2022-12-29T08:57:12;97657.63;;;11.83;62.23
15694;BME280;7947;48.834;9.132;2022-12-29T09:00:16;97660.56;;;11.81;62.18
15694;BME280;7947;48.834;9.132;2022-12-29T09:03:19;97667.25;;;11.84;62.35
15694;BME280;7947;48.834;9.132;2022-12-29T09:06:42;97672.25;;;11.90;62.01
15694;BME280;7947;48.834;9.132;2022-12-29T09:09:45;97672.06;;;12.00;61.75
15694;BME280;7947;48.834;9.132;2022-12-29T09:12:50;97676.41;;;12.15;62.03
15694;BME280;7947;48.834;9.132;2022-12-29T09:15:57;97690.69;;;12.29;61.29
15694;BME280;7947;48.834;9.132;2022-12-29T09:19:01;97688.75;;;12.29;61.86
15694;BME280;7947;48.834;9.132;2022-12-29T09:22:03;97688.59;;;12.39;61.57
15694;BME280;7947;48.834;9.132;2022-12-29T09:25:07;97689.22;;;12.50;61.06
15694;BME280;7947;48.834;9.132;2022-12-29T09:28:12;97695.78;;;12.57;60.83
15694;BME280;7947;48.834;9.132;2022-12-29T09:31:15;97693.78;;;12.63;60.91
15694;BME280;7947;48.834;9.132;2022-12-29T09:34:18;97690.22;;;12.67;60.65
15694;BME280;7947;48.834;9.132;2022-12-29T09:37:20;97700.06;;;12.72;60.63
15694;BME280;7947;48.834;9.132;2022-12-29T09:40:27;97693.00;;;12.76;60.88
15694;BME280;7947;48.834;9.132;2022-12-29T09:43:52;97692.81;;;12.86;60.39
15694;BME280;7947;48.834;9.132;2022-12-29T09:46:58;97688.72;;;13.02;60.26
15694;BME280;7947;48.834;9.132;2022-12-29T09:50:07;97693.31;;;13.15;59.60
15694;BME280;7947;48.834;9.132;2022-12-29T09:53:17;97696.47;;;13.31;58.71
15694;BME280;7947;48.834;9.132;2022-12-29T09:56:26;97690.44;;;13.47;58.64
15694;BME280;7947;48.834;9.132;2022-12-29T09:59:38;97701.75;;;13.72;57.82
15694;BME280;7947;48.834;9.132;2022-12-29T10:02:44;97690.84;;;13.77;57.89
15694;BME280;7947;48.834;9.132;2022-12-29T10:05:53;97704.25;;;13.68;58.00
15694;BME280;7947;48.834;9.132;2022-12-29T10:09:03;97707.13;;;13.72;58.19
15694;BME280;7947;48.834;9.132;2022-12-29T10:12:16;97701.84;;;13.67;58.43
15694;BME280;7947;48.834;9.132;2022-12-29T10:15:38;97696.72;;;13.56;59.13
15694;BME280;7947;48.834;9.132;2022-12-29T10:19:05;97695.09;;;13.55;59.92
15694;BME280;7947;48.834;9.132;2022-12-29T10:22:20;97692.72;;;13.54;60.29
15694;BME280;7947;48.834;9.132;2022-12-29T10:25:32;97697.50;;;13.57;59.90
15694;BME280;7947;48.834;9.132;2022-12-29T10:28:39;97695.09;;;13.55;60.23
15694;BME280;7947;48.834;9.132;2022-12-29T10:31:48;97697.22;;;13.58;59.64
15694;BME280;7947;48.834;9.132;2022-12-29T10:34:55;97691.28;;;13.70;59.72
15694;BME280;7947;48.834;9.132;2022-12-29T10:38:12;97692.63;;;13.81;59.37
15694;BME280;7947;48.834;9.132;2022-12-29T10:41:21;97684.13;;;13.88;59.11
15694;BME280;7947;48.834;9.132;2022-12-29T10:44:29;97688.97;;;13.99;59.45
15694;BME280;7947;48.834;9.132;2022-12-29T10:47:39;97682.81;;;14.07;59.18
15694;BME280;7947;48.834;9.132;2022-12-29T10:50:45;97696.53;;;14.19;59.04
15694;BME280;7947;48.834;9.132;2022-12-29T10:53:51;97681.66;;;14.53;57.78
15694;BME280;7947;48.834;9.132;2022-12-29T10:57:00;97680.91;;;14.61;57.29
15694;BME280;7947;48.834;9.132;2022-12-29T11:00:11;97677.41;;;14.60;57.19
15694;BME280;7947;48.834;9.132;2022-12-29T11:03:31;97682.41;;;14.44;57.41
15694;BME280;7947;48.834;9.132;2022-12-29T11:06:37;97685.38;;;14.34;58.43
15694;BME280;7947;48.834;9.132;2022-12-29T11:09:40;97693.97;;;14.36;57.70
15694;BME280;7947;48.834;9.132;2022-12-29T11:12:55;97692.97;;;14.32;58.03
15694;BME280;7947;48.834;9.132;2022-12-29T11:16:00;97695.31;;;14.25;59.31
15694;BME280;7947;48.834;9.132;2022-12-29T11:19:05;97695.94;;;14.22;59.04
15694;BME280;7947;48.834;9.132;2022-12-29T11:22:14;97694.31;;;14.21;59.20
15694;BME280;7947;48.834;9.132;2022-12-29T11:25:17;97696.66;;;14.14;59.49
15694;BME280;7947;48.834;9.132;2022-12-29T11:28:20;97692.69;;;14.12;59.47
15694;BME280;7947;48.834;9.132;2022-12-29T11:31:30;97674.16;;;14.19;59.60
15694;BME280;7947;48.834;9.132;2022-12-29T11:34:35;97687.59;;;14.10;57.87
15694;BME280;7947;48.834;9.132;2022-12-29T11:37:39;97688.81;;;14.04;58.47
15694;BME280;7947;48.834;9.132;2022-12-29T11:40:42;97696.06;;;13.95;58.72
15694;BME280;7947;48.834;9.132;2022-12-29T11:43:45;97700.09;;;13.84;57.80
15694;BME280;7947;48.834;9.132;2022-12-29T11:46:51;97702.78;;;13.84;57.68
15694;BME280;7947;48.834;9.132;2022-12-29T11:49:58;97702.91;;;13.79;57.47
15694;BME280;7947;48.834;9.132;2022-12-29T11:53:05;97697.84;;;13.78;57.31
15694;BME280;7947;48.834;9.132;2022-12-29T11:56:15;97690.84;;;13.77;57.09
15694;BME280;7947;48.834;9.132;2022-12-29T11:59:41;97707.06;;;13.63;58.02
15694;BME280;7947;48.834;9.132;2022-12-29T12:02:50;97717.09;;;13.49;59.68
15694;BME280;7947;48.834;9.132;2022-12-29T12:05:56;97717.00;;;13.40;63.31
15694;BME280;7947;48.834;9.132;2022-12-29T12:09:04;97717.72;;;13.32;65.14
15694;BME280;7947;48.834;9.132;2022-12-29T12:12:20;97705.97;;;13.15;66.33
15694;BME280;7947;48.834;9.132;2022-12-29T12:15:28;97704.88;;;13.02;67.66
15694;BME280;7947;48.834;9.132;2022-12-29T12:18:39;97706.75;;;13.02;68.78
15694;BME280;7947;48.834;9.132;2022-12-29T12:21:49;97693.22;;;13.07;68.64
15694;BME280;7947;48.834;9.132;2022-12-29T12:24:57;97695.00;;;13.11;68.02
15694;BME280;7947;48.834;9.132;2022-12-29T12:28:09;97705.41;;;13.04;68.78
15694;BME280;7947;48.834;9.132;2022-12-29T12:31:25;97711.28;;;13.06;68.89
15694;BME280;7947;48.834;9.132;2022-12-29T12:34:41;97696.19;;;13.19;68.35
15694;BME280;7947;48.834;9.132;2022-12-29T12:38:04;97689.19;;;13.31;67.75
15694;BME280;7947;48.834;9.132;2022-12-29T12:41:12;97686.22;;;13.55;67.54
15694;BME280;7947;48.834;9.132;2022-12-29T12:44:28;97680.91;;;13.64;67.03
15694;BME280;7947;48.834;9.132;2022-12-29T12:47:53;97668.25;;;13.86;66.15
15694;BME280;7947;48.834;9.132;2022-12-29T12:51:15;97674.13;;;14.10;64.57
15694;BME280;7947;48.834;9.132;2022-12-29T12:54:36;97669.13;;;14.26;63.20
15694;BME280;7947;48.834;9.132;2022-12-29T12:57:51;97666.00;;;14.63;62.48
15694;BME280;7947;48.834;9.132;2022-12-29T13:01:13;97663.97;;;15.93;57.79
15694;BME280;7947;48.834;9.132;2022-12-29T13:04:32;97672.19;;;17.36;53.55
15694;BME280;7947;48.834;9.132;2022-12-29T13:07:45;97648.13;;;18.41;49.21
15694;BME280;7947;48.834;9.132;2022-12-29T13:11:02;97649.47;;;17.69;50.37
15694;BME280;7947;48.834;9.132;2022-12-29T13:14:19;97654.94;;;16.90;53.82
15694;BME280;7947;48.834;9.132;2022-12-29T13:17:32;97649.59;;;16.73;53.70
15694;BME280;7947;48.834;9.132;2022-12-29T13:20:44;97646.78;;;16.06;55.61
15694;BME280;7947;48.834;9.132;2022-12-29T13:23:56;97659.81;;;15.19;59.14
15694;BME280;7947;48.834;9.132;2022-12-29T13:27:11;97644.31;;;14.77;60.99
15694;BME280;7947;48.834;9.132;2022-12-29T13:30:18;97649.06;;;14.32;62.68
15694;BME280;7947;48.834;9.132;2022-12-29T13:33:25;97638.34;;;13.96;63.82
15694;BME280;7947;48.834;9.132;2022-12-29T13:36:35;97648.34;;;13.74;65.06
15694;BME280;7947;48.834;9.132;2022-12-29T13:39:43;97651.09;;;13.60;65.74
15694;BME280;7947;48.834;9.132;2022-12-29T13:42:50;97651.47;;;13.45;66.28
15694;BME280;7947;48.834;9.132;2022-12-29T13:45:59;97649.84;;;13.44;66.58
15694;BME280;7947;48.834;9.132;2022-12-29T13:49:08;97645.50;;;13.34;67.56
15694;BME280;7947;48.834;9.132;2022-12-29T13:52:21;97656.97;;;13.26;67.76
15694;BME280;7947;48.834;9.132;2022-12-29T13:55:31;97651.91;;;13.25;67.83
15694;BME280;7947;48.834;9.132;2022-12-29T13:58:43;97659.97;;;13.25;68.27
15694;BME280;7947;48.834;9.132;2022-12-29T14:01:53;97657.28;;;13.25;68.06
15694;BME280;7947;48.834;9.132;2022-12-29T14:04:59;97660.38;;;13.18;67.95
15694;BME280;7947;48.834;9.132;2022-12-29T14:08:05;97658.41;;;13.24;68.22
15694;BME280;7947;48.834;9.132;2022-12-29T14:11:10;97655.50;;;13.20;68.51
15694;BME280;7947;48.834;9.132;2022-12-29T14:14:21;97666.19;;;13.12;69.04
15694;BME280;7947;48.834;9.132;2022-12-29T14:17:25;97663.91;;;13.05;69.20
15694;BME280;7947;48.834;9.132;2022-12-29T14:20:28;97658.84;;;13.04;69.93
15694;BME280;7947;48.834;9.132;2022-12-29T14:23:39;97661.41;;;13.09;69.60
15694;BME280;7947;48.834;9.132;2022-12-29T14:26:42;97668.78;;;13.03;69.85
15694;BME280;7947;48.834;9.132;2022-12-29T14:29:47;97672.47;;;13.07;70.32
15694;BME280;7947;48.834;9.132;2022-12-29T14:33:01;97680.34;;;13.17;69.98
15694;BME280;7947;48.834;9.132;2022-12-29T14:36:19;97669.19;;;13.24;69.92
15694;BME280;7947;48.834;9.132;2022-12-29T14:39:36;97667.88;;;13.21;69.93
15694;BME280;7947;48.834;9.132;2022-12-29T14:42:41;97666.47;;;13.24;69.19
15694;BME280;7947;48.834;9.132;2022-12-29T14:45:52;97669.88;;;13.16;69.87
15694;BME280;7947;48.834;9.132;2022-12-29T14:48:57;97665.25;;;13.03;70.40
15694;BME280;7947;48.834;9.132;2022-12-29T14:52:12;97669.47;;;12.95;70.74
15694;BME280;7947;48.834;9.132;2022-12-29T14:55:36;97667.19;;;12.89;70.84
15694;BME280;7947;48.834;9.132;2022-12-29T14:58:46;97655.94;;;12.87;70.69
15694;BME280;7947;48.834;9.132;2022-12-29T15:01:52;97658.22;;;12.80;71.09
15694;BME280;7947;48.834;9.132;2022-12-29T15:04:59;97660.72;;;12.76;71.16
15694;BME280;7947;48.834;9.132;2022-12-29T15:08:04;97658.13;;;12.85;70.56
15694;BME280;7947;48.834;9.132;2022-12-29T15:11:13;97649.16;;;12.76;70.63
15694;BME280;7947;48.834;9.132;2022-12-29T15:14:31;97651.63;;;12.72;71.03
15694;BME280;7947;48.834;9.132;2022-12-29T15:17:36;97649.94;;;12.62;71.16
15694;BME280;7947;48.834;9.132;2022-12-29T15:20:42;97648.94;;;12.58;71.62
15694;BME280;7947;48.834;9.132;2022-12-29T15:23:45;97651.38;;;12.46;72.04
15694;BME280;7947;48.834;9.132;2022-12-29T15:26:51;97666.50;;;12.42;72.49
15694;BME280;7947;48.834;9.132;2022-12-29T15:29:58;97677.44;;;12.46;72.26
15694;BME280;7947;48.834;9.132;2022-12-29T15:33:17;97678.84;;;12.43;72.32
15694;BME280;7947;48.834;9.132;2022-12-29T15:36:23;97724.56;;;12.43;73.20
15694;BME280;7947;48.834;9.132;2022-12-29T15:39:29;97738.31;;;12.55;74.54
15694;BME280;7947;48.834;9.132;2022-12-29T15:42:46;97750.88;;;12.46;76.41
15694;BME280;7947;48.834;9.132;2022-12-29T15:45:53;97748.78;;;11.93;79.14
15694;BME280;7947;48.834;9.132;2022-12-29T15:48:58;97748.09;;;11.68;81.36
15694;BME280;7947;48.834;9.132;2022-12-29T15:52:06;97751.59;;;11.45;82.84
15694;BME280;7947;48.834;9.132;2022-12-29T15:55:19;97748.09;;;11.26;84.58
15694;BME280;7947;48.834;9.132;2022-12-29T15:58:24;97749.59;;;11.14;85.74
15694;BME280;7947;48.834;9.132;2022-12-29T16:01:29;97753.25;;;10.99;86.41
15694;BME280;7947;48.834;9.132;2022-12-29T16:04:35;97748.00;;;10.89;87.37
15694;BME280;7947;48.834;9.132;2022-12-29T16:07:59;97767.13;;;10.82;88.49
15694;BME280;7947;48.834;9.132;2022-12-29T16:11:06;97761.47;;;10.84;88.46
15694;BME280;7947;48.834;9.132;2022-12-29T16:14:15;97761.31;;;10.75;88.94
15694;BME280;7947;48.834;9.132;2022-12-29T16:17:21;97765.34;;;10.73;89.71
15694;BME280;7947;48.834;9.132;2022-12-29T16:20:39;97772.31;;;10.74;89.31
15694;BME280;7947;48.834;9.132;2022-12-29T16:23:48;97772.56;;;10.72;90.18
15694;BME280;7947;48.834;9.132;2022-12-29T16:26:58;97781.72;;;10.71;89.55
15694;BME280;7947;48.834;9.132;2022-12-29T16:30:06;97773.47;;;10.63;90.57
15694;BME280;7947;48.834;9.132;2022-12-29T16:33:33;97767.16;;;10.54;91.81
15694;BME280;7947;48.834;9.132;2022-12-29T16:36:53;97765.78;;;10.56;91.67
15694;BME280;7947;48.834;9.132;2022-12-29T16:39:56;97774.59;;;10.57;92.54
15694;BME280;7947;48.834;9.132;2022-12-29T16:43:30;97780.84;;;10.52;92.34
15694;BME280;7947;48.834;9.132;2022-12-29T16:46:57;97789.69;;;10.53;93.08
15694;BME280;7947;48.834;9.132;2022-12-29T16:50:11;97786.50;;;10.51;93.25
15694;BME280;7947;48.834;9.132;2022-12-29T16:53:21;97799.09;;;10.50;93.84